createdAt,value
2017-07-16T00:02:37.096Z,97871.14
2017-07-16T00:07:24.046Z,97876.02
2017-07-16T00:12:10.781Z,97872.36
2017-07-16T00:16:57.428Z,97863.25
2017-07-16T00:21:44.123Z,97870.41
2017-07-16T00:26:30.753Z,97861.34
2017-07-16T00:31:18.112Z,97863.80
2017-07-16T00:36:04.814Z,97862.45
2017-07-16T00:40:52.176Z,97861.89
2017-07-16T00:45:39.249Z,97865.52
2017-07-16T00:50:25.917Z,97863.27
2017-07-16T00:55:12.570Z,97868.57
2017-07-16T00:59:59.240Z,97867.48
2017-07-16T01:04:46.670Z,97859.23
2017-07-16T01:09:34.037Z,97862.27
2017-07-16T01:14:20.670Z,97859.03
2017-07-16T01:19:07.316Z,97853.45
2017-07-16T01:23:53.985Z,97853.67
2017-07-16T01:28:41.348Z,97860.32
2017-07-16T01:33:27.979Z,97848.89
2017-07-16T01:38:14.623Z,97848.42
2017-07-16T01:43:01.402Z,97844.47
2017-07-16T01:47:48.351Z,97850.01
2017-07-16T01:52:35.013Z,97854.45
2017-07-16T01:57:22.340Z,97843.19
2017-07-16T02:02:08.951Z,97848.06
2017-07-16T02:06:55.589Z,97848.27
2017-07-16T02:11:42.234Z,97843.42
2017-07-16T02:16:29.415Z,97844.19
2017-07-16T02:21:16.120Z,97843.65
2017-07-16T02:26:02.776Z,97842.04
2017-07-16T02:30:49.520Z,97848.80
2017-07-16T02:35:37.235Z,97847.52
2017-07-16T02:40:23.867Z,97846.89
2017-07-16T02:45:10.474Z,97843.77
2017-07-16T02:49:57.083Z,97853.56
2017-07-16T02:54:43.796Z,97852.41
2017-07-16T02:59:30.460Z,97850.12
2017-07-16T03:04:17.091Z,97852.48
2017-07-16T03:09:04.492Z,97854.73
2017-07-16T03:13:51.521Z,97860.80
2017-07-16T03:18:38.318Z,97860.41
2017-07-16T03:23:25.071Z,97866.59
2017-07-16T03:28:11.739Z,97873.08
2017-07-16T03:32:58.361Z,97882.95
2017-07-16T03:37:45.074Z,97874.13
2017-07-16T03:42:32.260Z,97875.35
2017-07-16T03:47:18.888Z,97878.27
2017-07-16T03:52:05.687Z,97886.08
2017-07-16T03:56:52.307Z,97889.94
2017-07-16T04:01:39.289Z,97894.65
2017-07-16T04:06:26.696Z,97890.39
2017-07-16T04:11:13.587Z,97884.34
2017-07-16T04:16:00.295Z,97894.70
2017-07-16T04:20:46.923Z,97893.38
2017-07-16T04:25:33.625Z,97893.39
2017-07-16T04:30:20.806Z,97895.98
2017-07-16T04:35:07.432Z,97904.16
2017-07-16T04:39:54.036Z,97906.75
2017-07-16T04:44:40.685Z,97912.36
2017-07-16T04:49:27.300Z,97917.07
2017-07-16T04:54:14.755Z,97914.95
2017-07-16T04:59:01.668Z,97913.63
2017-07-16T05:03:48.407Z,97917.91
2017-07-16T05:08:35.896Z,97923.52
2017-07-16T05:13:22.658Z,97925.17
2017-07-16T05:18:09.431Z,97928.19
2017-07-16T05:22:56.074Z,97936.80
2017-07-16T05:27:43.111Z,97937.97
2017-07-16T05:32:29.783Z,97940.09
2017-07-16T05:37:16.399Z,97943.58
2017-07-16T05:42:03.118Z,97945.16
2017-07-16T05:46:50.494Z,97954.89
2017-07-16T05:51:37.135Z,97956.50
2017-07-16T05:56:23.767Z,97959.38
2017-07-16T06:01:10.776Z,97964.20
2017-07-16T06:05:57.396Z,97966.84
2017-07-16T06:10:44.017Z,97968.77
2017-07-16T06:15:30.698Z,97970.80
2017-07-16T06:20:17.403Z,97968.80
2017-07-16T06:25:05.250Z,97966.64
2017-07-16T06:29:53.066Z,97967.50
2017-07-16T06:34:39.783Z,97975.97
2017-07-16T06:39:26.438Z,97977.52
2017-07-16T06:44:13.841Z,97974.84
2017-07-16T06:49:07.322Z,97964.84
2017-07-16T06:53:53.985Z,97969.88
2017-07-16T06:58:40.615Z,97969.71
2017-07-16T07:03:27.685Z,97975.43
2017-07-16T07:08:14.445Z,97977.68
2017-07-16T07:13:01.818Z,97979.44
2017-07-16T07:17:48.450Z,97982.50
2017-07-16T07:22:35.052Z,97985.48
2017-07-16T07:27:21.761Z,97988.42
2017-07-16T07:32:08.501Z,97985.34
2017-07-16T07:36:55.128Z,97980.20
2017-07-16T07:41:42.051Z,97984.14
2017-07-16T07:46:28.708Z,97979.84
2017-07-16T07:51:15.381Z,97991.44
2017-07-16T07:56:02.131Z,97977.84
2017-07-16T08:00:48.909Z,97973.99
2017-07-16T08:05:36.383Z,97965.73
2017-07-16T08:10:23.041Z,97969.61
2017-07-16T08:15:09.700Z,97969.33
2017-07-16T08:19:56.365Z,97965.98
2017-07-16T08:24:43.005Z,97959.78
2017-07-16T08:29:29.629Z,97963.64
2017-07-16T08:34:16.243Z,97958.20
2017-07-16T08:39:02.929Z,97953.14
2017-07-16T08:43:49.548Z,97957.50
2017-07-16T08:48:36.196Z,97954.56
2017-07-16T08:53:22.868Z,97952.23
2017-07-16T08:58:09.515Z,97948.94
2017-07-16T09:02:56.288Z,97941.44
2017-07-16T09:07:43.669Z,97949.97
2017-07-16T09:12:30.394Z,97947.42
2017-07-16T09:17:17.061Z,97938.41
2017-07-16T09:22:04.494Z,97931.80
2017-07-16T09:26:51.091Z,97928.52
2017-07-16T09:31:37.725Z,97936.04
2017-07-16T09:36:24.380Z,97936.44
2017-07-16T09:41:11.086Z,97929.73
2017-07-16T09:45:58.472Z,97928.02
2017-07-16T09:50:45.446Z,97926.73
2017-07-16T09:55:32.845Z,97937.80
2017-07-16T10:00:19.470Z,97924.33
2017-07-16T10:05:06.102Z,97928.61
2017-07-16T10:09:52.740Z,97909.77
2017-07-16T10:14:39.373Z,97920.52
2017-07-16T10:19:26.757Z,97917.17
2017-07-16T10:24:13.422Z,97919.31
2017-07-16T10:29:01.146Z,97904.87
2017-07-16T10:33:47.773Z,97899.95
2017-07-16T10:38:34.541Z,97898.73
2017-07-16T10:43:21.288Z,97891.49
2017-07-16T10:48:08.088Z,97885.72
2017-07-16T10:52:54.756Z,97889.19
2017-07-16T10:57:41.691Z,97877.86
2017-07-16T11:02:28.437Z,97887.80
2017-07-16T11:07:15.095Z,97882.81
2017-07-16T11:12:01.791Z,97880.15
2017-07-16T11:16:48.463Z,97874.87
2017-07-16T11:21:35.121Z,97867.92
2017-07-16T11:26:22.782Z,97865.64
2017-07-16T11:31:09.434Z,97854.08
2017-07-16T11:35:56.105Z,97846.32
2017-07-16T11:40:42.766Z,97857.39
2017-07-16T11:45:29.457Z,97856.36
2017-07-16T11:50:16.162Z,97852.19
2017-07-16T11:55:03.573Z,97855.66
2017-07-16T11:59:50.190Z,97847.08
2017-07-16T12:04:36.832Z,97841.38
2017-07-16T12:09:23.472Z,97836.34
2017-07-16T12:14:10.577Z,97838.09
2017-07-16T12:18:57.188Z,97833.72
2017-07-16T12:23:43.881Z,97833.70
2017-07-16T12:28:30.554Z,97834.53
2017-07-16T12:33:17.988Z,97836.41
2017-07-16T12:38:04.601Z,97829.75
2017-07-16T12:42:51.557Z,97826.93
2017-07-16T12:47:38.229Z,97825.69
2017-07-16T12:52:24.981Z,97823.50
2017-07-16T12:57:12.423Z,97820.94
2017-07-16T13:01:59.123Z,97818.02
2017-07-16T13:06:45.761Z,97813.55
2017-07-16T13:11:33.162Z,97806.42
2017-07-16T13:16:21.182Z,97804.34
2017-07-16T13:21:07.846Z,97804.17
2017-07-16T13:25:54.480Z,97797.52
2017-07-16T13:30:41.191Z,97802.23
2017-07-16T13:35:27.931Z,97793.26
2017-07-16T13:40:14.612Z,97796.06
2017-07-16T13:45:01.224Z,97788.07
2017-07-16T13:49:47.908Z,97788.38
2017-07-16T13:54:34.540Z,97784.19
2017-07-16T13:59:21.193Z,97786.17
2017-07-16T14:04:08.135Z,97782.14
2017-07-16T14:08:54.759Z,97778.36
2017-07-16T14:13:41.415Z,97769.23
2017-07-16T14:18:28.811Z,97766.08
2017-07-16T14:23:15.459Z,97768.20
2017-07-16T14:28:02.113Z,97764.05
2017-07-16T14:32:49.043Z,97768.27
2017-07-16T14:37:35.724Z,97763.55
2017-07-16T14:42:22.510Z,97759.53
2017-07-16T14:47:09.170Z,97755.89
2017-07-16T14:51:56.192Z,97750.11
2017-07-16T14:56:42.846Z,97753.25
2017-07-16T15:01:29.524Z,97749.66
2017-07-16T15:06:16.156Z,97743.30
2017-07-16T15:11:02.871Z,97743.03
2017-07-16T15:15:49.578Z,97738.51
2017-07-16T15:20:36.274Z,97735.91
2017-07-16T15:25:23.236Z,97738.02
2017-07-16T15:30:09.836Z,97731.37
2017-07-16T15:34:56.517Z,97728.17
2017-07-16T15:39:43.187Z,97726.26
2017-07-16T15:44:30.171Z,97718.21
2017-07-16T15:49:16.842Z,97714.20
2017-07-16T15:54:03.522Z,97717.52
2017-07-16T15:58:50.158Z,97720.63
2017-07-16T16:03:36.812Z,97716.25
2017-07-16T16:08:23.513Z,97713.05
2017-07-16T16:13:10.270Z,97697.05
2017-07-16T16:17:57.025Z,97705.15
2017-07-16T16:22:43.761Z,97705.07
2017-07-16T16:27:30.433Z,97702.18
2017-07-16T16:32:17.068Z,97705.14
2017-07-16T16:37:04.456Z,97708.43
2017-07-16T16:41:51.109Z,97704.67
2017-07-16T16:46:38.019Z,97699.60
2017-07-16T16:51:24.720Z,97698.50
2017-07-16T16:56:11.364Z,97698.80
2017-07-16T17:00:58.012Z,97697.49
2017-07-16T17:05:45.504Z,97687.23
2017-07-16T17:10:32.309Z,97691.03
2017-07-16T17:15:19.359Z,97691.95
2017-07-16T17:20:05.982Z,97691.28
2017-07-16T17:24:52.840Z,97694.72
2017-07-16T17:29:39.527Z,97698.27
2017-07-16T17:34:26.173Z,97697.08
2017-07-16T17:39:13.133Z,97683.74
2017-07-16T17:43:59.784Z,97698.38
2017-07-16T17:48:46.513Z,97699.42
2017-07-16T17:53:33.212Z,97704.02
2017-07-16T17:58:19.951Z,97705.50
2017-07-16T18:03:07.018Z,97698.48
2017-07-16T18:07:53.695Z,97704.88
2017-07-16T18:12:40.483Z,97705.21
2017-07-16T18:17:27.934Z,97707.41
2017-07-16T18:22:14.603Z,97705.80
2017-07-16T18:27:01.267Z,97711.76
2017-07-16T18:31:48.995Z,97710.20
2017-07-16T18:36:35.646Z,97705.88
2017-07-16T18:41:22.552Z,97710.91
2017-07-16T18:46:09.229Z,97709.89
2017-07-16T18:50:55.907Z,97704.19
2017-07-16T18:55:42.916Z,97704.47
2017-07-16T19:00:29.565Z,97715.91
2017-07-16T19:05:16.302Z,97709.19
2017-07-16T19:10:03.053Z,97716.39
2017-07-16T19:14:49.810Z,97718.31
2017-07-16T19:19:37.249Z,97721.02
2017-07-16T19:24:24.747Z,97719.34
2017-07-16T19:29:11.502Z,97726.62
2017-07-16T19:33:58.321Z,97726.36
2017-07-16T19:38:45.380Z,97736.97
2017-07-16T19:43:32.223Z,97746.20
2017-07-16T19:48:19.030Z,97745.60
2017-07-16T19:53:06.472Z,97751.55
2017-07-16T19:57:54.026Z,97750.19
2017-07-16T20:02:40.746Z,97750.98
2017-07-16T20:07:27.677Z,97748.06
2017-07-16T20:12:14.343Z,97755.84
2017-07-16T20:17:01.087Z,97749.61
2017-07-16T20:21:47.750Z,97752.46
2017-07-16T20:26:35.008Z,97745.61
2017-07-16T20:31:22.018Z,97746.06
2017-07-16T20:36:08.764Z,97744.67
2017-07-16T20:40:55.461Z,97740.49
2017-07-16T20:45:42.165Z,97737.41
2017-07-16T20:50:28.929Z,97739.73
2017-07-16T20:55:15.613Z,97736.59
2017-07-16T21:00:02.616Z,97733.78
2017-07-16T21:04:49.285Z,97740.61
2017-07-16T21:09:35.906Z,97732.43
2017-07-16T21:14:22.569Z,97736.95
2017-07-16T21:19:09.960Z,97733.12
2017-07-16T21:23:56.902Z,97722.17
2017-07-16T21:28:43.553Z,97721.66
2017-07-16T21:33:30.965Z,97727.28
2017-07-16T21:38:17.600Z,97726.50
2017-07-16T21:43:04.283Z,97733.54
2017-07-16T21:47:51.214Z,97730.09
2017-07-16T21:52:37.840Z,97722.45
2017-07-16T21:57:24.478Z,97726.80
2017-07-16T22:02:11.123Z,97730.36
2017-07-16T22:06:57.757Z,97731.47
2017-07-16T22:11:45.252Z,97726.19
2017-07-16T22:16:32.185Z,97729.27
2017-07-16T22:21:18.861Z,97736.38
2017-07-16T22:26:05.541Z,97736.71
2017-07-16T22:30:52.303Z,97733.25
2017-07-16T22:35:39.068Z,97728.05
2017-07-16T22:40:25.704Z,97728.78
2017-07-16T22:45:13.068Z,97724.30
2017-07-16T22:50:00.469Z,97730.80
2017-07-16T22:54:47.085Z,97718.73
2017-07-16T22:59:33.720Z,97718.52
2017-07-16T23:04:20.653Z,97717.26
2017-07-16T23:09:07.241Z,97717.64
2017-07-16T23:13:53.882Z,97715.92
2017-07-16T23:18:40.519Z,97721.24
2017-07-16T23:23:27.254Z,97713.63
2017-07-16T23:28:14.946Z,97712.17
2017-07-16T23:33:01.563Z,97707.85
2017-07-16T23:37:48.186Z,97711.83
2017-07-16T23:42:34.811Z,97712.75
2017-07-16T23:47:21.549Z,97714.38
2017-07-16T23:52:08.568Z,97714.61
2017-07-16T23:56:55.405Z,97714.77
